Latest Weather Observations for Norseman Airport

IDW60801

Issued at 2:53 pm WST Thursday 18 August 2022 (issued every 10 minutes, with the page automatically refreshed every 10 minutes)

About weather observations | Map of weather stations | Latest weather observations for WA | Other Formats
Station Details ID: 012009 Name: NORSEMAN AERO Lat: -32.21 Lon: 121.75 Height: 262.5 m
Data from the previous 72 hours. | See also: Recent months at Norseman Airport
Date/Time
WST
Temp
°C
App
Temp
°C
Dew
Point
°C
Rel
Hum
%
Delta-T
°C
Wind Press
QNH
hPa
Press
MSL
hPa
Rain since
9am
mm
Dir  Spd
km/h
Gust
km/h
Spd
kts
Gust
kts
18/02:30pm 15.5 10.3 3.6 45 5.5 WSW 20 28 11 15 1024.7 1024.8 0.0
18/02:00pm 15.3 10.3 4.4 48 5.1 WSW 20 28 11 15 1024.7 1024.8 0.0
18/01:30pm 15.1 10.1 4.5 49 5.0 WSW 20 33 11 18 1024.7 1024.8 0.0
18/01:00pm 14.7 10.0 5.0 52 4.6 W 19 32 10 17 1024.8 1024.9 0.0
18/12:30pm 14.4 9.4 3.8 49 4.9 WSW 19 28 10 15 1025.2 1025.3 0.0
18/12:00pm 14.7 10.0 6.0 56 4.2 WSW 20 30 11 16 1025.5 1025.6 0.0
18/11:30am 13.9 9.4 6.0 59 3.8 WSW 19 26 10 14 1025.4 1025.5 0.0
18/11:00am 13.0 8.7 5.2 59 3.7 WSW 17 30 9 16 1025.6 1025.7 0.0
18/10:30am 12.4 7.5 4.9 60 3.5 WSW 20 30 11 16 1025.6 1025.7 0.0
18/10:00am 11.9 7.1 4.6 61 3.3 SW 19 24 10 13 1025.4 1025.5 0.0
18/09:30am 11.2 6.0 5.3 67 2.7 WSW 22 26 12 14 1025.3 1025.4 0.0
18/09:00am 10.4 5.6 5.8 73 2.1 SW 20 26 11 14 1025.0 1025.1 1.0
18/08:30am 9.2 5.4 5.6 78 1.7 SW 15 19 8 10 1024.8 1024.9 1.0
18/08:00am 7.6 4.4 5.2 85 1.1 SW 11 15 6 8 1024.4 1024.5 1.0
18/07:30am 6.3 3.1 5.3 93 0.4 SW 11 15 6 8 1023.7 1023.7 1.0
18/07:00am 5.6 2.7 4.9 95 0.3 SSW 9 13 5 7 1023.2 1023.2 0.8
18/06:30am 5.0 2.1 4.4 96 0.3 S 9 11 5 6 1023.0 1023.1 0.8
18/06:00am 5.4 2.6 5.1 98 0.1 SSW 9 13 5 7 1022.3 1022.4 0.8
18/05:30am 5.3 2.5 5.2 99 0.0 S 9 13 5 7 1021.8 1021.9 0.8
18/05:00am 4.9 1.6 4.8 99 0.0 SSW 11 13 6 7 1021.6 1021.7 0.8
18/04:30am 5.1 2.3 5.0 99 0.0 SW 9 13 5 7 1021.2 1021.3 0.8
18/04:00am 5.5 2.0 5.4 99 0.0 WSW 13 17 7 9 1020.9 1021.0 0.8
18/03:30am 5.6 2.5 5.5 99 0.0 WSW 11 15 6 8 1020.4 1020.4 0.8
18/03:00am 6.0 3.0 5.9 99 0.0 SSW 11 13 6 7 1019.8 1019.8 0.8
18/02:30am 6.4 3.8 6.1 98 0.1 SW 9 11 5 6 1019.4 1019.4 0.8
18/02:00am 7.2 4.4 6.8 97 0.2 SW 11 15 6 8 1018.8 1018.9 0.8
18/01:30am 7.6 4.6 7.5 99 0.0 SW 13 19 7 10 1018.7 1018.8 0.8
18/01:00am 7.0 4.6 6.9 99 0.0 WSW 9 11 5 6 1018.2 1018.3 0.8
18/12:30am 7.2 4.8 7.1 99 0.0 SW 9 11 5 6 1017.7 1017.8 0.8
18/12:00am 7.6 5.7 7.5 99 0.0 SW 7 9 4 5 1017.3 1017.3 0.8
 
Date/Time
WST
Temp
°C
App
Temp
°C
Dew
Point
°C
Rel
Hum
%
Delta-T
°C
Wind Press
QNH
hPa
Press
MSL
hPa
Rain since
9am
mm
Dir  Spd
km/h
Gust
km/h
Spd
kts
Gust
kts
17/11:30pm 8.3 6.6 8.2 99 0.0 SW 7 9 4 5 1017.0 1017.0 0.8
17/11:00pm 8.5 7.0 8.4 99 0.0 WSW 6 9 3 5 1016.5 1016.5 0.8
17/10:30pm 8.9 7.3 8.6 98 0.1 SW 7 9 4 5 1016.0 1016.0 0.8
17/10:00pm 8.9 7.3 7.8 93 0.5 SW 6 7 3 4 1016.0 1016.0 0.8
17/09:30pm 9.6 6.4 7.0 84 1.2 SSW 13 15 7 8 1015.3 1015.3 0.4
17/09:00pm 10.0 7.5 6.5 79 1.7 SW 9 17 5 9 1014.9 1015.0 0.4
17/08:30pm 10.1 7.5 5.9 75 2.0 WSW 9 13 5 7 1014.1 1014.1 0.4
17/08:00pm 10.9 7.1 5.9 71 2.4 WSW 15 20 8 11 1013.8 1013.8 0.4
17/07:30pm 11.2 7.0 5.7 69 2.6 W 17 24 9 13 1013.7 1013.7 0.4
17/07:00pm 11.1 7.3 5.8 70 2.5 W 15 19 8 10 1013.5 1013.5 0.4
17/06:30pm 10.9 7.8 5.4 69 2.6 WSW 11 15 6 8 1012.6 1012.6 0.4
17/06:00pm 11.9 7.6 5.1 63 3.2 W 17 22 9 12 1012.5 1012.5 0.4
17/05:30pm 12.3 6.6 4.8 60 3.5 W 24 32 13 17 1012.2 1012.2 0.4
17/05:00pm 13.2 8.4 5.6 60 3.6 W 20 30 11 16 1011.0 1011.1 0.4
17/04:30pm 14.1 6.1 5.5 56 4.1 W 37 46 20 25 1012.0 1012.0 0.4
17/04:00pm 14.5 7.1 5.0 53 4.5 W 33 44 18 24 1011.2 1011.2 0.4
17/03:30pm 15.0 7.0 5.5 53 4.6 WNW 37 48 20 26 1010.5 1010.5 0.4
17/03:02pm 14.7 7.0 5.5 54 4.4 W 35 54 19 29 1010.2 1010.2 0.4
17/03:00pm 14.8 6.7 5.1 52 4.6 W 37 54 20 29 1010.3 1010.3 0.4
17/02:30pm 15.7 7.2 5.0 49 5.1 W 39 52 21 28 1009.9 1009.9 0.4
17/02:00pm 16.3 7.5 7.3 55 4.5 W 43 61 23 33 1009.7 1009.7 0.4
17/01:30pm 15.3 6.0 6.1 54 4.5 W 44 57 24 31 1009.7 1009.7 0.4
17/01:11pm 16.1 7.1 7.1 55 4.5 WNW 44 63 24 34 1009.4 1009.4 0.4
17/01:00pm 15.9 7.1 7.1 56 4.4 WNW 43 59 23 32 1009.5 1009.5 0.4
17/12:37pm 14.8 6.5 7.6 62 3.6 WNW 41 59 22 32 1010.0 1010.0 0.4
17/12:30pm 14.8 6.6 8.1 64 3.4 WNW 41 56 22 30 1010.1 1010.1 0.4
17/12:00pm 13.9 6.1 8.1 68 2.9 WNW 39 61 21 33 1010.4 1010.4 0.4
17/11:59am 13.7 5.7 7.5 66 3.1 WNW 39 61 21 33 1010.4 1010.4 0.4
17/11:30am 12.2 3.9 7.7 74 2.2 WNW 41 54 22 29 1010.8 1010.8 0.4
17/11:02am 10.9 1.0 8.1 83 1.4 W 50 69 27 37 1011.2 1011.2 0.4
17/11:00am 11.1 1.2 8.3 83 1.4 W 50 69 27 37 1011.2 1011.2 0.4
17/10:35am 12.0 3.5 8.7 80 1.7 WSW 43 61 23 33 1010.9 1010.9 0.0
17/10:30am 12.7 4.0 8.4 75 2.2 W 44 61 24 33 1010.7 1010.7 0.0
17/10:29am 12.8 3.6 8.1 73 2.4 WNW 46 61 25 33 1010.8 1010.8 0.0
17/10:16am 14.7 6.8 7.7 63 3.5 WNW 39 67 21 36 1010.3 1010.3 0.0
17/10:00am 14.7 7.3 8.4 66 3.2 WNW 37 50 20 27 1010.3 1010.3 0.0
17/09:30am 14.1 6.6 9.5 74 2.4 NW 39 54 21 29 1010.3 1010.3 0.0
17/09:27am 14.0 6.9 9.6 75 2.3 NW 37 54 20 29 1010.2 1010.2 0.0
17/09:00am 13.1 8.0 10.6 85 1.3 NW 28 35 15 19 1010.1 1010.1 8.2
17/08:30am 12.2 6.1 9.8 85 1.2 NW 32 43 17 23 1010.2 1010.2 8.2
17/08:00am 12.8 7.6 10.3 85 1.3 NW 28 35 15 19 1010.0 1010.0 8.0
17/07:35am 12.1 6.0 9.7 85 1.2 NNW 32 50 17 27 1009.6 1009.6 8.0
17/07:30am 12.1 6.4 9.8 86 1.2 NNW 30 35 16 19 1009.5 1009.5 8.0
17/07:00am 11.3 6.0 9.9 91 0.7 NNW 28 37 15 20 1009.2 1009.2 8.0
17/06:30am 10.5 6.8 10.0 97 0.3 NNW 20 24 11 13 1009.1 1009.1 8.0
17/06:00am 10.4 6.9 10.2 99 0.1 N 19 24 10 13 1008.8 1008.8 8.0
17/05:30am 11.0 7.5 10.1 94 0.5 NNW 19 26 10 14 1008.6 1008.6 8.0
17/05:00am 11.2 7.5 10.1 93 0.6 NNW 20 28 11 15 1008.7 1008.7 8.0
17/04:30am 11.6 7.2 10.3 92 0.7 NNW 24 33 13 18 1008.5 1008.5 8.0
17/04:00am 11.5 7.1 10.4 93 0.6 NNW 24 32 13 17 1008.4 1008.4 8.0
17/03:30am 11.6 8.2 10.7 94 0.5 NNW 19 26 10 14 1008.3 1008.3 8.0
17/03:00am 11.9 8.3 10.6 92 0.7 NW 20 28 11 15 1008.3 1008.3 8.0
17/02:30am 12.0 8.6 10.7 92 0.7 NW 19 26 10 14 1008.3 1008.3 8.0
17/02:00am 12.2 9.2 10.6 90 0.8 NW 17 22 9 12 1008.2 1008.2 8.0
17/01:30am 12.6 9.2 10.5 87 1.1 NW 19 24 10 13 1008.2 1008.2 8.0
17/01:00am 13.0 10.1 10.9 87 1.1 NW 17 22 9 12 1008.4 1008.4 8.0
17/12:30am 13.4 10.6 11.3 87 1.1 NW 17 24 9 13 1008.2 1008.2 8.0
17/12:00am 13.7 10.5 11.2 85 1.3 NW 19 24 10 13 1008.6 1008.6 8.0
 
Date/Time
WST
Temp
°C
App
Temp
°C
Dew
Point
°C
Rel
Hum
%
Delta-T
°C
Wind Press
QNH
hPa
Press
MSL
hPa
Rain since
9am
mm
Dir  Spd
km/h
Gust
km/h
Spd
kts
Gust
kts
16/11:30pm 13.8 11.0 11.5 86 1.2 NW 17 24 9 13 1008.6 1008.6 8.0
16/11:00pm 13.9 10.7 11.8 87 1.1 NW 20 26 11 14 1008.7 1008.7 8.0
16/10:30pm 14.0 11.0 12.0 88 1.1 WNW 19 26 10 14 1008.8 1008.8 8.0
16/10:00pm 14.0 11.2 12.7 92 0.7 WNW 19 22 10 12 1009.1 1009.1 8.0
16/09:30pm 13.9 12.2 13.7 99 0.1 WNW 15 20 8 11 1009.2 1009.2 8.0
16/09:00pm 14.0 12.4 13.8 99 0.1 WNW 15 20 8 11 1009.1 1009.1 8.0
16/08:30pm 13.9 13.1 13.9 100 0.0 W 11 15 6 8 1009.0 1009.0 8.0
16/08:00pm 13.8 10.1 13.8 100 0.0 WSW 26 33 14 18 1008.8 1008.8 8.0
16/07:30pm 15.5 14.0 15.3 99 0.1 WNW 17 24 9 13 1008.4 1008.4 7.6
16/07:00pm 15.7 12.7 14.9 95 0.5 NW 24 32 13 17 1008.4 1008.4 7.4
16/06:30pm 16.0 12.3 15.0 94 0.6 NW 28 35 15 19 1008.0 1008.0 7.2
16/06:00pm 16.4 14.3 16.2 99 0.1 NW 22 32 12 17 1007.8 1007.8 6.6
16/05:30pm 16.7 15.1 16.5 99 0.1 NNW 20 30 11 16 1007.4 1007.3 5.0
16/05:00pm 17.0 15.4 16.5 97 0.3 NNW 20 28 11 15 1007.0 1007.0 4.4
16/04:30pm 17.4 14.0 15.9 91 0.9 NNW 28 41 15 22 1006.6 1006.6 4.2
16/04:00pm 17.3 15.2 17.1 99 0.1 NNW 24 33 13 18 1006.2 1006.2 4.0
16/03:30pm 17.7 15.6 17.1 96 0.4 NNW 24 32 13 17 1006.1 1006.1 3.6
16/03:00pm 18.6 15.0 16.2 86 1.5 NNW 30 41 16 22 1006.0 1006.0 3.2
16/02:30pm 18.6 15.9 16.6 88 1.2 NW 26 33 14 18 1005.9 1005.9 3.2
16/02:00pm 18.5 15.8 16.7 89 1.1 NW 26 32 14 17 1005.5 1005.5 3.0
16/01:30pm 18.1 15.2 17.1 94 0.6 NW 28 37 15 20 1005.6 1005.6 3.0
16/01:07pm 17.9 13.6 16.8 93 0.7 NW 35 56 19 30 1006.1 1006.1 3.0
16/01:00pm 18.1 14.5 17.3 95 0.5 NW 32 48 17 26 1006.2 1006.2 3.0
16/12:50pm 17.7 15.0 17.5 99 0.1 NW 28 46 15 25 1006.4 1006.4 2.8
16/12:30pm 17.8 15.9 17.6 99 0.1 NW 24 35 13 19 1006.2 1006.2 2.6
16/12:00pm 17.5 14.4 17.5 100 0.0 NW 30 41 16 22 1006.9 1006.9 2.6
16/11:30am 17.3 14.0 17.1 99 0.1 NW 30 39 16 21 1007.3 1007.2 2.6
16/11:00am 16.9 15.6 16.9 100 0.0 NW 19 30 10 16 1007.4 1007.3 2.6
16/10:30am 16.4 15.3 16.4 100 0.0 WNW 17 26 9 14 1007.5 1007.4 2.2
16/10:00am 15.8 14.1 15.8 100 0.0 WSW 19 26 10 14 1008.3 1008.3 1.0
16/09:30am 16.8 13.3 16.6 99 0.1 N 30 35 16 19 1007.5 1007.4 0.2
16/09:00am 16.3 13.2 15.5 95 0.5 N 26 35 14 19 1007.7 1007.6 2.6
16/08:30am 15.5 12.1 13.7 89 1.0 N 24 30 13 16 1007.7 1007.6 2.2
16/08:00am 15.8 13.1 12.9 83 1.6 N 19 24 10 13 1007.4 1007.3 2.0
16/07:30am 15.2 12.4 13.1 87 1.2 N 20 24 11 13 1007.3 1007.2 2.0
16/07:00am 15.2 11.4 12.3 83 1.6 N 24 28 13 15 1007.5 1007.4 1.6
16/06:30am 15.3 11.8 12.2 82 1.7 NNE 22 26 12 14 1007.5 1007.4 1.6
16/06:00am 15.6 12.3 11.6 77 2.2 NNE 20 24 11 13 1007.5 1007.4 1.4
16/05:30am 15.6 12.2 11.4 76 2.3 NNE 20 26 11 14 1007.5 1007.4 1.4
16/05:00am 15.5 11.8 11.5 77 2.2 NNE 22 26 12 14 1007.8 1007.8 1.2
16/04:30am 15.2 11.9 11.6 79 2.0 NNE 20 24 11 13 1008.0 1008.0 1.0
16/04:00am 14.5 12.7 12.2 86 1.3 NE 13 19 7 10 1008.3 1008.3 1.0
16/03:30am 14.8 13.1 12.3 85 1.4 NNE 13 15 7 8 1009.2 1009.2 0.6
16/03:00am 15.1 13.3 12.2 83 1.6 NNE 13 17 7 9 1008.9 1008.9 0.6
16/02:30am 16.5 13.0 10.8 69 3.1 N 20 24 11 13 1009.0 1009.0 0.2
16/02:00am 17.5 12.6 9.9 61 4.1 NNE 26 32 14 17 1009.2 1009.2 0.0
16/01:30am 19.3 13.4 7.4 46 6.1 NNE 28 37 15 20 1008.8 1008.8 0.0
16/01:00am 19.6 13.0 7.7 46 6.2 NNE 32 43 17 23 1009.1 1009.1 0.0
16/12:30am 19.2 13.3 7.6 47 6.0 NNE 28 37 15 20 1009.4 1009.4 0.0
16/12:00am 19.2 13.8 7.9 48 5.9 NNE 26 35 14 19 1010.3 1010.3 0.0
 
Date/Time
WST
Temp
°C
App
Temp
°C
Dew
Point
°C
Rel
Hum
%
Delta-T
°C
Wind Press
QNH
hPa
Press
MSL
hPa
Rain since
9am
mm
Dir  Spd
km/h
Gust
km/h
Spd
kts
Gust
kts
15/11:30pm 19.8 14.4 8.2 47 6.1 NNE 26 35 14 19 1011.0 1011.1 0.0
15/11:00pm 20.1 14.3 8.1 46 6.3 NE 28 37 15 20 1011.2 1011.2 0.0
15/10:30pm 20.2 14.5 8.2 46 6.3 NE 28 35 15 19 1011.5 1011.5 0.0
15/10:00pm 20.0 14.3 8.4 47 6.1 NE 28 37 15 20 1012.1 1012.1 0.0
15/09:30pm 20.4 14.2 7.7 44 6.6 NNE 30 43 16 23 1012.5 1012.5 0.0
15/09:00pm 20.3 14.4 7.3 43 6.7 NNE 28 35 15 19 1013.2 1013.2 0.0
15/08:30pm 20.3 14.0 7.3 43 6.7 NNE 30 37 16 20 1013.2 1013.2 0.0
15/08:00pm 20.5 14.2 7.2 42 6.9 NE 30 39 16 21 1012.8 1012.8 0.0
15/07:30pm 20.1 15.2 6.8 42 6.8 NE 22 28 12 15 1012.8 1012.8 0.0
15/07:00pm 20.1 15.6 6.8 42 6.8 NE 20 26 11 14 1013.0 1013.0 0.0
15/06:30pm 20.1 15.6 7.1 43 6.7 NE 20 28 11 15 1012.9 1012.9 0.0
15/06:00pm 20.0 15.5 7.1 43 6.6 NE 20 28 11 15 1012.8 1012.8 0.0
15/05:30pm 20.6 15.7 6.9 41 7.1 NNE 22 30 12 16 1012.8 1012.8 0.0
15/05:00pm 21.5 15.9 7.0 39 7.5 NNE 26 35 14 19 1012.9 1012.9 0.0
15/04:30pm 22.0 15.5 6.7 37 7.9 NE 30 39 16 21 1012.8 1012.8 0.0
15/04:00pm 22.2 15.7 6.4 36 8.1 NNE 30 39 16 21 1013.1 1013.1 0.0
15/03:30pm 22.4 16.3 6.6 36 8.2 NNE 28 39 15 21 1013.5 1013.5 0.0
15/03:00pm 22.2 16.1 6.4 36 8.1 NNE 28 37 15 20 1014.1 1014.1 0.0

Other formats

Comma delimited format used in spreadsheet applications
http://www.bom.gov.au/fwo/IDW60801/IDW60801.95642.axf

JavaScript Object Notation format (JSON) in row-major order
http://www.bom.gov.au/fwo/IDW60801/IDW60801.95642.json

Data quality

Most of these data are generated automatically and are frequently updated. Quality checks on data are not normally performed. It is possible for incorrect values to appear. Refer to information at About Latest Weather Observations and please check the disclaimer before using these data.